sensor_id;sensor_type;location;lat;lon;timestamp;P1;durP1;ratioP1;P2;durP2;ratioP2
21804;SDS011;11064;47.102;15.452;2023-05-07T05:02:28;21.50;;;16.48;;
21804;SDS011;11064;47.102;15.452;2023-05-07T05:04:54;18.45;;;13.75;;
21804;SDS011;11064;47.102;15.452;2023-05-07T05:07:19;15.32;;;11.48;;
21804;SDS011;11064;47.102;15.452;2023-05-07T05:09:45;8.52;;;7.00;;
21804;SDS011;11064;47.102;15.452;2023-05-07T05:12:11;7.72;;;5.68;;
21804;SDS011;11064;47.102;15.452;2023-05-07T05:14:37;5.10;;;4.60;;
21804;SDS011;11064;47.102;15.452;2023-05-07T05:17:02;5.38;;;3.53;;
21804;SDS011;11064;47.102;15.452;2023-05-07T05:19:28;5.00;;;4.50;;
21804;SDS011;11064;47.102;15.452;2023-05-07T05:21:54;5.13;;;3.95;;
21804;SDS011;11064;47.102;15.452;2023-05-07T05:24:20;6.07;;;4.63;;
21804;SDS011;11064;47.102;15.452;2023-05-07T05:26:45;5.47;;;4.40;;
21804;SDS011;11064;47.102;15.452;2023-05-07T05:29:11;7.22;;;4.32;;
21804;SDS011;11064;47.102;15.452;2023-05-07T05:31:37;5.05;;;4.15;;
21804;SDS011;11064;47.102;15.452;2023-05-07T05:34:03;4.25;;;3.80;;
21804;SDS011;11064;47.102;15.452;2023-05-07T05:36:28;5.53;;;4.30;;
21804;SDS011;11064;47.102;15.452;2023-05-07T05:38:55;5.25;;;4.47;;
21804;SDS011;11064;47.102;15.452;2023-05-07T05:41:21;5.80;;;4.43;;
21804;SDS011;11064;47.102;15.452;2023-05-07T05:43:48;6.35;;;4.90;;
21804;SDS011;11064;47.102;15.452;2023-05-07T05:46:14;6.40;;;4.45;;
21804;SDS011;11064;47.102;15.452;2023-05-07T05:48:40;7.15;;;4.15;;
21804;SDS011;11064;47.102;15.452;2023-05-07T05:51:06;4.90;;;4.40;;
21804;SDS011;11064;47.102;15.452;2023-05-07T05:53:32;5.70;;;4.22;;
21804;SDS011;11064;47.102;15.452;2023-05-07T05:55:57;6.50;;;4.30;;
21804;SDS011;11064;47.102;15.452;2023-05-07T05:58:24;5.75;;;4.35;;
21804;SDS011;11064;47.102;15.452;2023-05-07T06:00:50;5.60;;;3.55;;
21804;SDS011;11064;47.102;15.452;2023-05-07T06:03:17;4.18;;;3.78;;
21804;SDS011;11064;47.102;15.452;2023-05-07T06:05:43;3.92;;;3.53;;
21804;SDS011;11064;47.102;15.452;2023-05-07T06:08:09;5.32;;;3.20;;
21804;SDS011;11064;47.102;15.452;2023-05-07T06:10:35;3.80;;;3.40;;
21804;SDS011;11064;47.102;15.452;2023-05-07T06:13:02;5.03;;;3.17;;
21804;SDS011;11064;47.102;15.452;2023-05-07T06:15:28;4.28;;;3.60;;
21804;SDS011;11064;47.102;15.452;2023-05-07T06:17:53;5.13;;;3.50;;
21804;SDS011;11064;47.102;15.452;2023-05-07T06:20:21;6.00;;;3.53;;
21804;SDS011;11064;47.102;15.452;2023-05-07T06:22:46;5.25;;;3.35;;
21804;SDS011;11064;47.102;15.452;2023-05-07T06:25:12;4.75;;;3.60;;
21804;SDS011;11064;47.102;15.452;2023-05-07T06:27:38;4.75;;;3.50;;
21804;SDS011;11064;47.102;15.452;2023-05-07T06:30:05;5.47;;;3.80;;
21804;SDS011;11064;47.102;15.452;2023-05-07T06:32:31;5.93;;;3.67;;
21804;SDS011;11064;47.102;15.452;2023-05-07T06:34:57;4.57;;;3.80;;
21804;SDS011;11064;47.102;15.452;2023-05-07T06:37:22;7.78;;;3.65;;
21804;SDS011;11064;47.102;15.452;2023-05-07T06:39:48;5.03;;;3.67;;
21804;SDS011;11064;47.102;15.452;2023-05-07T06:42:14;6.47;;;4.05;;
21804;SDS011;11064;47.102;15.452;2023-05-07T06:44:40;4.95;;;3.35;;
21804;SDS011;11064;47.102;15.452;2023-05-07T06:47:06;4.82;;;3.67;;
21804;SDS011;11064;47.102;15.452;2023-05-07T06:49:31;3.78;;;3.33;;
21804;SDS011;11064;47.102;15.452;2023-05-07T06:51:58;4.10;;;3.40;;
21804;SDS011;11064;47.102;15.452;2023-05-07T06:54:24;3.78;;;3.30;;
21804;SDS011;11064;47.102;15.452;2023-05-07T06:56:49;4.60;;;3.10;;
21804;SDS011;11064;47.102;15.452;2023-05-07T06:59:15;5.38;;;3.75;;
21804;SDS011;11064;47.102;15.452;2023-05-07T07:01:41;9.07;;;3.40;;
21804;SDS011;11064;47.102;15.452;2023-05-07T07:04:07;3.92;;;3.42;;
21804;SDS011;11064;47.102;15.452;2023-05-07T07:06:33;5.32;;;3.60;;
21804;SDS011;11064;47.102;15.452;2023-05-07T07:08:59;5.72;;;4.10;;
21804;SDS011;11064;47.102;15.452;2023-05-07T07:11:25;6.88;;;3.83;;
21804;SDS011;11064;47.102;15.452;2023-05-07T07:13:51;4.68;;;3.28;;
21804;SDS011;11064;47.102;15.452;2023-05-07T07:16:19;6.53;;;3.90;;
21804;SDS011;11064;47.102;15.452;2023-05-07T07:18:48;6.28;;;3.90;;
21804;SDS011;11064;47.102;15.452;2023-05-07T07:21:13;4.20;;;3.80;;
21804;SDS011;11064;47.102;15.452;2023-05-07T07:23:39;4.95;;;3.65;;
21804;SDS011;11064;47.102;15.452;2023-05-07T07:26:05;4.70;;;4.20;;
21804;SDS011;11064;47.102;15.452;2023-05-07T07:28:31;5.05;;;4.22;;
21804;SDS011;11064;47.102;15.452;2023-05-07T07:30:57;4.90;;;4.43;;
21804;SDS011;11064;47.102;15.452;2023-05-07T07:33:23;4.68;;;4.28;;
21804;SDS011;11064;47.102;15.452;2023-05-07T07:35:49;5.22;;;4.60;;
21804;SDS011;11064;47.102;15.452;2023-05-07T07:38:15;5.70;;;5.10;;
21804;SDS011;11064;47.102;15.452;2023-05-07T07:40:40;5.60;;;5.05;;
21804;SDS011;11064;47.102;15.452;2023-05-07T07:43:06;6.47;;;4.72;;
21804;SDS011;11064;47.102;15.452;2023-05-07T07:45:33;5.93;;;4.35;;
21804;SDS011;11064;47.102;15.452;2023-05-07T07:47:59;5.53;;;4.43;;
21804;SDS011;11064;47.102;15.452;2023-05-07T07:50:25;7.35;;;4.78;;
21804;SDS011;11064;47.102;15.452;2023-05-07T07:52:51;6.72;;;5.10;;
21804;SDS011;11064;47.102;15.452;2023-05-07T07:55:19;9.30;;;4.93;;
21804;SDS011;11064;47.102;15.452;2023-05-07T07:57:48;6.97;;;4.40;;
21804;SDS011;11064;47.102;15.452;2023-05-07T08:00:15;5.53;;;4.25;;
21804;SDS011;11064;47.102;15.452;2023-05-07T08:02:41;7.95;;;4.55;;
21804;SDS011;11064;47.102;15.452;2023-05-07T08:05:07;6.60;;;5.15;;
21804;SDS011;11064;47.102;15.452;2023-05-07T08:07:33;5.35;;;4.80;;
21804;SDS011;11064;47.102;15.452;2023-05-07T08:09:59;5.07;;;4.57;;
21804;SDS011;11064;47.102;15.452;2023-05-07T08:12:25;6.72;;;4.93;;
21804;SDS011;11064;47.102;15.452;2023-05-07T08:14:51;5.82;;;4.88;;
21804;SDS011;11064;47.102;15.452;2023-05-07T08:17:16;6.00;;;5.10;;
21804;SDS011;11064;47.102;15.452;2023-05-07T08:19:42;5.88;;;5.05;;
21804;SDS011;11064;47.102;15.452;2023-05-07T08:22:09;6.57;;;4.75;;
21804;SDS011;11064;47.102;15.452;2023-05-07T08:24:36;7.75;;;5.15;;
21804;SDS011;11064;47.102;15.452;2023-05-07T08:27:02;5.72;;;5.10;;
21804;SDS011;11064;47.102;15.452;2023-05-07T08:29:28;7.38;;;4.97;;
21804;SDS011;11064;47.102;15.452;2023-05-07T08:31:54;6.15;;;4.53;;
21804;SDS011;11064;47.102;15.452;2023-05-07T08:34:21;5.10;;;4.60;;
21804;SDS011;11064;47.102;15.452;2023-05-07T08:36:47;5.72;;;4.20;;
21804;SDS011;11064;47.102;15.452;2023-05-07T08:39:14;5.07;;;4.40;;
21804;SDS011;11064;47.102;15.452;2023-05-07T08:41:45;7.72;;;5.20;;
21804;SDS011;11064;47.102;15.452;2023-05-07T08:44:12;6.32;;;5.72;;
21804;SDS011;11064;47.102;15.452;2023-05-07T08:46:41;7.28;;;5.10;;
21804;SDS011;11064;47.102;15.452;2023-05-07T08:49:11;5.13;;;4.43;;
21804;SDS011;11064;47.102;15.452;2023-05-07T08:51:37;5.78;;;4.82;;
21804;SDS011;11064;47.102;15.452;2023-05-07T08:54:03;5.45;;;4.90;;
21804;SDS011;11064;47.102;15.452;2023-05-07T08:56:31;6.65;;;4.60;;
21804;SDS011;11064;47.102;15.452;2023-05-07T08:58:57;6.75;;;4.45;;
21804;SDS011;11064;47.102;15.452;2023-05-07T09:01:23;5.47;;;3.97;;
21804;SDS011;11064;47.102;15.452;2023-05-07T09:03:50;6.32;;;4.22;;
21804;SDS011;11064;47.102;15.452;2023-05-07T09:06:16;6.53;;;3.95;;
21804;SDS011;11064;47.102;15.452;2023-05-07T09:08:48;4.50;;;4.10;;
21804;SDS011;11064;47.102;15.452;2023-05-07T09:11:22;4.43;;;3.85;;
21804;SDS011;11064;47.102;15.452;2023-05-07T09:13:49;5.30;;;4.43;;
21804;SDS011;11064;47.102;15.452;2023-05-07T09:16:23;4.63;;;3.67;;
21804;SDS011;11064;47.102;15.452;2023-05-07T09:18:54;4.28;;;3.72;;
21804;SDS011;11064;47.102;15.452;2023-05-07T09:21:20;7.10;;;3.80;;
21804;SDS011;11064;47.102;15.452;2023-05-07T09:23:48;6.53;;;3.70;;
21804;SDS011;11064;47.102;15.452;2023-05-07T09:26:17;4.18;;;3.78;;
21804;SDS011;11064;47.102;15.452;2023-05-07T09:28:46;6.32;;;4.10;;
21804;SDS011;11064;47.102;15.452;2023-05-07T09:31:11;4.43;;;4.03;;
21804;SDS011;11064;47.102;15.452;2023-05-07T09:33:38;4.18;;;3.70;;
21804;SDS011;11064;47.102;15.452;2023-05-07T09:36:05;4.88;;;3.78;;
21804;SDS011;11064;47.102;15.452;2023-05-07T09:38:32;4.13;;;3.72;;
21804;SDS011;11064;47.102;15.452;2023-05-07T09:41:06;6.53;;;3.80;;
21804;SDS011;11064;47.102;15.452;2023-05-07T09:43:34;5.10;;;4.10;;
21804;SDS011;11064;47.102;15.452;2023-05-07T09:46:02;4.07;;;3.50;;
21804;SDS011;11064;47.102;15.452;2023-05-07T09:48:31;4.30;;;3.90;;
21804;SDS011;11064;47.102;15.452;2023-05-07T09:51:02;4.57;;;3.97;;
21804;SDS011;11064;47.102;15.452;2023-05-07T09:53:31;4.82;;;3.90;;
21804;SDS011;11064;47.102;15.452;2023-05-07T09:55:59;4.80;;;3.70;;
21804;SDS011;11064;47.102;15.452;2023-05-07T09:58:26;4.65;;;3.55;;
21804;SDS011;11064;47.102;15.452;2023-05-07T10:00:52;7.20;;;3.42;;
21804;SDS011;11064;47.102;15.452;2023-05-07T10:03:18;3.60;;;3.28;;
21804;SDS011;11064;47.102;15.452;2023-05-07T10:05:45;3.90;;;3.50;;
21804;SDS011;11064;47.102;15.452;2023-05-07T10:08:12;4.88;;;3.95;;
21804;SDS011;11064;47.102;15.452;2023-05-07T10:10:41;5.68;;;3.40;;
21804;SDS011;11064;47.102;15.452;2023-05-07T10:13:08;3.83;;;3.42;;
21804;SDS011;11064;47.102;15.452;2023-05-07T10:15:36;3.40;;;3.10;;
21804;SDS011;11064;47.102;15.452;2023-05-07T10:18:03;5.07;;;2.90;;
21804;SDS011;11064;47.102;15.452;2023-05-07T10:20:31;4.60;;;3.13;;
21804;SDS011;11064;47.102;15.452;2023-05-07T10:22:58;5.55;;;2.85;;
21804;SDS011;11064;47.102;15.452;2023-05-07T10:25:27;4.10;;;3.15;;
21804;SDS011;11064;47.102;15.452;2023-05-07T10:27:55;3.53;;;2.42;;
21804;SDS011;11064;47.102;15.452;2023-05-07T10:30:45;4.05;;;2.70;;
21804;SDS011;11064;47.102;15.452;2023-05-07T10:33:22;3.88;;;2.58;;
21804;SDS011;11064;47.102;15.452;2023-05-07T10:35:52;4.90;;;2.90;;
21804;SDS011;11064;47.102;15.452;2023-05-07T10:38:25;2.92;;;2.72;;
21804;SDS011;11064;47.102;15.452;2023-05-07T10:40:52;4.72;;;2.80;;
21804;SDS011;11064;47.102;15.452;2023-05-07T10:43:19;3.15;;;2.58;;
21804;SDS011;11064;47.102;15.452;2023-05-07T10:46:08;2.42;;;2.22;;
21804;SDS011;11064;47.102;15.452;2023-05-07T10:51:28;4.65;;;2.90;;
21804;SDS011;11064;47.102;15.452;2023-05-07T10:56:38;2.80;;;2.42;;
21804;SDS011;11064;47.102;15.452;2023-05-07T11:02:07;2.95;;;2.50;;
21804;SDS011;11064;47.102;15.452;2023-05-07T11:04:34;2.35;;;2.15;;
21804;SDS011;11064;47.102;15.452;2023-05-07T11:09:55;4.05;;;2.55;;
21804;SDS011;11064;47.102;15.452;2023-05-07T11:12:47;2.97;;;2.42;;
21804;SDS011;11064;47.102;15.452;2023-05-07T11:15:14;3.28;;;2.20;;
21804;SDS011;11064;47.102;15.452;2023-05-07T11:17:58;4.43;;;2.20;;
21804;SDS011;11064;47.102;15.452;2023-05-07T11:26:02;4.10;;;2.20;;
21804;SDS011;11064;47.102;15.452;2023-05-07T11:28:29;6.95;;;2.38;;
21804;SDS011;11064;47.102;15.452;2023-05-07T11:30:56;3.72;;;2.13;;
21804;SDS011;11064;47.102;15.452;2023-05-07T11:33:23;4.28;;;2.45;;
21804;SDS011;11064;47.102;15.452;2023-05-07T11:35:54;4.22;;;2.50;;
21804;SDS011;11064;47.102;15.452;2023-05-07T11:38:20;2.40;;;2.20;;
21804;SDS011;11064;47.102;15.452;2023-05-07T11:40:50;2.42;;;2.22;;
21804;SDS011;11064;47.102;15.452;2023-05-07T11:43:16;2.55;;;2.35;;
21804;SDS011;11064;47.102;15.452;2023-05-07T11:45:42;2.28;;;2.08;;
21804;SDS011;11064;47.102;15.452;2023-05-07T11:48:09;2.97;;;2.40;;
21804;SDS011;11064;47.102;15.452;2023-05-07T11:50:35;2.53;;;2.20;;
21804;SDS011;11064;47.102;15.452;2023-05-07T11:53:07;2.88;;;2.05;;
21804;SDS011;11064;47.102;15.452;2023-05-07T11:55:33;3.55;;;2.10;;
21804;SDS011;11064;47.102;15.452;2023-05-07T11:57:59;3.47;;;2.10;;
21804;SDS011;11064;47.102;15.452;2023-05-07T12:00:25;2.90;;;2.10;;
21804;SDS011;11064;47.102;15.452;2023-05-07T12:02:50;3.22;;;2.03;;
21804;SDS011;11064;47.102;15.452;2023-05-07T12:05:16;2.97;;;2.17;;
21804;SDS011;11064;47.102;15.452;2023-05-07T12:07:42;3.83;;;2.00;;
21804;SDS011;11064;47.102;15.452;2023-05-07T12:10:08;2.65;;;2.17;;
21804;SDS011;11064;47.102;15.452;2023-05-07T12:12:39;2.35;;;2.15;;
21804;SDS011;11064;47.102;15.452;2023-05-07T12:15:07;2.72;;;2.10;;
21804;SDS011;11064;47.102;15.452;2023-05-07T12:17:33;2.25;;;2.03;;
21804;SDS011;11064;47.102;15.452;2023-05-07T12:19:59;2.45;;;2.25;;
21804;SDS011;11064;47.102;15.452;2023-05-07T12:22:26;2.58;;;2.00;;
21804;SDS011;11064;47.102;15.452;2023-05-07T12:24:58;3.50;;;2.10;;
21804;SDS011;11064;47.102;15.452;2023-05-07T12:27:25;3.42;;;2.20;;
21804;SDS011;11064;47.102;15.452;2023-05-07T12:29:51;6.22;;;2.45;;
21804;SDS011;11064;47.102;15.452;2023-05-07T12:32:18;5.53;;;2.15;;
21804;SDS011;11064;47.102;15.452;2023-05-07T12:34:45;4.57;;;2.05;;
21804;SDS011;11064;47.102;15.452;2023-05-07T12:37:12;3.65;;;2.20;;
21804;SDS011;11064;47.102;15.452;2023-05-07T12:39:43;3.58;;;2.33;;
21804;SDS011;11064;47.102;15.452;2023-05-07T12:42:14;3.28;;;2.30;;
21804;SDS011;11064;47.102;15.452;2023-05-07T12:44:41;4.03;;;2.55;;
21804;SDS011;11064;47.102;15.452;2023-05-07T12:47:10;2.47;;;2.28;;
21804;SDS011;11064;47.102;15.452;2023-05-07T12:49:37;2.80;;;2.47;;
21804;SDS011;11064;47.102;15.452;2023-05-07T12:52:04;3.60;;;2.55;;
21804;SDS011;11064;47.102;15.452;2023-05-07T12:54:31;3.38;;;2.50;;
21804;SDS011;11064;47.102;15.452;2023-05-07T12:57:07;2.97;;;2.50;;
21804;SDS011;11064;47.102;15.452;2023-05-07T12:59:35;3.95;;;2.50;;
21804;SDS011;11064;47.102;15.452;2023-05-07T13:02:03;3.67;;;2.95;;
21804;SDS011;11064;47.102;15.452;2023-05-07T13:04:29;3.63;;;3.00;;
21804;SDS011;11064;47.102;15.452;2023-05-07T13:06:55;7.93;;;3.10;;
21804;SDS011;11064;47.102;15.452;2023-05-07T13:09:21;3.47;;;3.17;;
21804;SDS011;11064;47.102;15.452;2023-05-07T13:11:46;4.10;;;3.08;;
21804;SDS011;11064;47.102;15.452;2023-05-07T13:14:12;3.72;;;3.33;;
21804;SDS011;11064;47.102;15.452;2023-05-07T13:16:38;4.60;;;3.47;;
21804;SDS011;11064;47.102;15.452;2023-05-07T13:19:04;4.63;;;3.20;;
21804;SDS011;11064;47.102;15.452;2023-05-07T13:21:30;5.95;;;4.15;;
21804;SDS011;11064;47.102;15.452;2023-05-07T13:23:57;5.10;;;4.40;;
21804;SDS011;11064;47.102;15.452;2023-05-07T13:26:23;5.60;;;5.10;;
21804;SDS011;11064;47.102;15.452;2023-05-07T13:28:49;9.50;;;8.10;;
21804;SDS011;11064;47.102;15.452;2023-05-07T13:31:16;10.52;;;8.82;;
21804;SDS011;11064;47.102;15.452;2023-05-07T13:33:42;11.38;;;9.25;;
21804;SDS011;11064;47.102;15.452;2023-05-07T13:36:08;13.60;;;10.43;;
21804;SDS011;11064;47.102;15.452;2023-05-07T13:38:34;11.93;;;10.48;;
21804;SDS011;11064;47.102;15.452;2023-05-07T13:41:00;13.43;;;10.48;;
21804;SDS011;11064;47.102;15.452;2023-05-07T13:43:26;14.32;;;10.88;;
21804;SDS011;11064;47.102;15.452;2023-05-07T13:45:52;14.68;;;11.00;;
21804;SDS011;11064;47.102;15.452;2023-05-07T13:48:18;12.73;;;11.32;;
21804;SDS011;11064;47.102;15.452;2023-05-07T13:50:43;13.50;;;11.00;;
21804;SDS011;11064;47.102;15.452;2023-05-07T13:53:09;12.88;;;10.70;;
21804;SDS011;11064;47.102;15.452;2023-05-07T13:55:35;14.10;;;11.45;;
21804;SDS011;11064;47.102;15.452;2023-05-07T13:58:01;16.35;;;11.85;;
21804;SDS011;11064;47.102;15.452;2023-05-07T14:00:28;13.25;;;11.45;;
21804;SDS011;11064;47.102;15.452;2023-05-07T14:02:55;12.70;;;10.68;;
21804;SDS011;11064;47.102;15.452;2023-05-07T14:05:21;12.77;;;10.57;;
21804;SDS011;11064;47.102;15.452;2023-05-07T14:07:48;15.52;;;11.55;;
21804;SDS011;11064;47.102;15.452;2023-05-07T14:10:18;14.38;;;11.15;;
21804;SDS011;11064;47.102;15.452;2023-05-07T14:12:45;14.10;;;10.90;;
21804;SDS011;11064;47.102;15.452;2023-05-07T14:15:11;11.27;;;9.55;;
21804;SDS011;11064;47.102;15.452;2023-05-07T14:17:37;10.68;;;9.57;;
21804;SDS011;11064;47.102;15.452;2023-05-07T14:20:03;10.80;;;9.15;;
21804;SDS011;11064;47.102;15.452;2023-05-07T14:22:31;12.05;;;9.32;;
21804;SDS011;11064;47.102;15.452;2023-05-07T14:24:57;11.05;;;9.45;;
21804;SDS011;11064;47.102;15.452;2023-05-07T14:27:22;10.93;;;8.65;;
21804;SDS011;11064;47.102;15.452;2023-05-07T14:29:48;10.57;;;8.48;;
21804;SDS011;11064;47.102;15.452;2023-05-07T14:32:18;9.32;;;7.75;;
21804;SDS011;11064;47.102;15.452;2023-05-07T14:34:45;7.95;;;7.10;;
21804;SDS011;11064;47.102;15.452;2023-05-07T14:37:11;7.82;;;6.82;;
21804;SDS011;11064;47.102;15.452;2023-05-07T14:39:37;6.95;;;6.25;;
21804;SDS011;11064;47.102;15.452;2023-05-07T14:42:02;7.45;;;6.28;;
21804;SDS011;11064;47.102;15.452;2023-05-07T14:44:28;7.68;;;5.82;;
21804;SDS011;11064;47.102;15.452;2023-05-07T14:46:54;7.55;;;6.85;;
21804;SDS011;11064;47.102;15.452;2023-05-07T14:49:21;8.38;;;7.35;;
21804;SDS011;11064;47.102;15.452;2023-05-07T14:51:47;8.75;;;7.65;;
21804;SDS011;11064;47.102;15.452;2023-05-07T14:54:13;11.73;;;8.20;;
21804;SDS011;11064;47.102;15.452;2023-05-07T14:56:40;10.10;;;7.68;;
21804;SDS011;11064;47.102;15.452;2023-05-07T14:59:06;9.50;;;8.23;;
21804;SDS011;11064;47.102;15.452;2023-05-07T15:01:36;13.02;;;8.05;;
21804;SDS011;11064;47.102;15.452;2023-05-07T15:04:05;10.43;;;8.20;;
21804;SDS011;11064;47.102;15.452;2023-05-07T15:06:31;9.50;;;7.65;;
21804;SDS011;11064;47.102;15.452;2023-05-07T15:08:57;8.90;;;7.43;;
21804;SDS011;11064;47.102;15.452;2023-05-07T15:11:23;8.27;;;7.43;;
21804;SDS011;11064;47.102;15.452;2023-05-07T15:13:49;10.00;;;7.93;;
21804;SDS011;11064;47.102;15.452;2023-05-07T15:16:15;10.82;;;7.43;;
21804;SDS011;11064;47.102;15.452;2023-05-07T15:18:42;10.90;;;8.45;;
21804;SDS011;11064;47.102;15.452;2023-05-07T15:21:07;11.30;;;8.27;;
21804;SDS011;11064;47.102;15.452;2023-05-07T15:23:33;9.45;;;8.07;;
21804;SDS011;11064;47.102;15.452;2023-05-07T15:25:59;10.80;;;8.88;;
21804;SDS011;11064;47.102;15.452;2023-05-07T15:28:26;9.48;;;8.48;;
21804;SDS011;11064;47.102;15.452;2023-05-07T15:30:53;9.98;;;8.80;;
21804;SDS011;11064;47.102;15.452;2023-05-07T15:33:20;9.77;;;8.63;;
21804;SDS011;11064;47.102;15.452;2023-05-07T15:35:46;10.38;;;8.35;;
21804;SDS011;11064;47.102;15.452;2023-05-07T15:38:11;9.32;;;8.32;;
21804;SDS011;11064;47.102;15.452;2023-05-07T15:40:38;9.95;;;8.60;;
21804;SDS011;11064;47.102;15.452;2023-05-07T15:43:07;9.05;;;8.02;;
21804;SDS011;11064;47.102;15.452;2023-05-07T15:45:40;9.75;;;8.35;;
21804;SDS011;11064;47.102;15.452;2023-05-07T15:48:07;8.77;;;7.85;;
21804;SDS011;11064;47.102;15.452;2023-05-07T15:50:34;8.68;;;7.78;;
21804;SDS011;11064;47.102;15.452;2023-05-07T15:53:01;9.05;;;8.10;;
21804;SDS011;11064;47.102;15.452;2023-05-07T15:55:28;8.88;;;7.80;;
21804;SDS011;11064;47.102;15.452;2023-05-07T15:57:55;8.98;;;8.07;;
21804;SDS011;11064;47.102;15.452;2023-05-07T16:00:21;8.95;;;8.05;;
21804;SDS011;11064;47.102;15.452;2023-05-07T16:02:47;9.32;;;8.10;;
21804;SDS011;11064;47.102;15.452;2023-05-07T16:05:13;10.63;;;8.63;;
21804;SDS011;11064;47.102;15.452;2023-05-07T16:07:39;9.55;;;8.18;;
21804;SDS011;11064;47.102;15.452;2023-05-07T16:10:08;9.00;;;7.78;;
21804;SDS011;11064;47.102;15.452;2023-05-07T16:12:34;9.77;;;8.77;;
21804;SDS011;11064;47.102;15.452;2023-05-07T16:15:00;10.20;;;8.15;;
21804;SDS011;11064;47.102;15.452;2023-05-07T16:17:26;9.48;;;8.48;;
21804;SDS011;11064;47.102;15.452;2023-05-07T16:19:51;8.88;;;7.97;;
21804;SDS011;11064;47.102;15.452;2023-05-07T16:22:17;9.23;;;8.18;;
21804;SDS011;11064;47.102;15.452;2023-05-07T16:24:43;10.10;;;7.90;;
21804;SDS011;11064;47.102;15.452;2023-05-07T16:27:10;8.52;;;7.63;;
21804;SDS011;11064;47.102;15.452;2023-05-07T16:29:36;8.88;;;7.53;;
21804;SDS011;11064;47.102;15.452;2023-05-07T16:32:01;9.25;;;6.93;;
21804;SDS011;11064;47.102;15.452;2023-05-07T16:34:27;7.57;;;6.78;;
21804;SDS011;11064;47.102;15.452;2023-05-07T16:36:53;9.05;;;7.50;;
21804;SDS011;11064;47.102;15.452;2023-05-07T16:39:19;10.05;;;6.90;;
21804;SDS011;11064;47.102;15.452;2023-05-07T16:41:45;8.82;;;6.80;;
21804;SDS011;11064;47.102;15.452;2023-05-07T16:44:13;8.07;;;7.10;;
21804;SDS011;11064;47.102;15.452;2023-05-07T16:46:39;7.95;;;7.13;;
21804;SDS011;11064;47.102;15.452;2023-05-07T16:49:04;7.85;;;7.00;;
21804;SDS011;11064;47.102;15.452;2023-05-07T16:51:32;8.18;;;7.20;;
21804;SDS011;11064;47.102;15.452;2023-05-07T16:53:58;10.02;;;6.80;;
21804;SDS011;11064;47.102;15.452;2023-05-07T16:56:24;7.55;;;6.85;;
21804;SDS011;11064;47.102;15.452;2023-05-07T16:58:51;7.93;;;6.90;;
21804;SDS011;11064;47.102;15.452;2023-05-07T17:01:16;8.50;;;7.10;;
21804;SDS011;11064;47.102;15.452;2023-05-07T17:03:43;7.60;;;6.47;;
21804;SDS011;11064;47.102;15.452;2023-05-07T17:06:09;7.15;;;6.13;;
21804;SDS011;11064;47.102;15.452;2023-05-07T17:08:42;7.53;;;6.10;;
21804;SDS011;11064;47.102;15.452;2023-05-07T17:11:08;8.30;;;6.55;;
21804;SDS011;11064;47.102;15.452;2023-05-07T17:13:34;8.52;;;7.22;;
21804;SDS011;11064;47.102;15.452;2023-05-07T17:16:00;8.25;;;7.22;;
21804;SDS011;11064;47.102;15.452;2023-05-07T17:18:26;8.13;;;7.28;;
21804;SDS011;11064;47.102;15.452;2023-05-07T17:20:52;8.88;;;7.07;;
21804;SDS011;11064;47.102;15.452;2023-05-07T17:23:18;11.40;;;7.15;;
21804;SDS011;11064;47.102;15.452;2023-05-07T17:25:43;8.57;;;7.68;;
21804;SDS011;11064;47.102;15.452;2023-05-07T17:28:12;10.98;;;8.00;;
21804;SDS011;11064;47.102;15.452;2023-05-07T17:30:38;8.63;;;7.72;;
21804;SDS011;11064;47.102;15.452;2023-05-07T17:33:05;9.98;;;8.98;;
21804;SDS011;11064;47.102;15.452;2023-05-07T17:35:30;9.40;;;8.40;;
21804;SDS011;11064;47.102;15.452;2023-05-07T17:38:01;10.48;;;9.38;;
21804;SDS011;11064;47.102;15.452;2023-05-07T17:40:27;12.05;;;8.88;;
21804;SDS011;11064;47.102;15.452;2023-05-07T17:42:53;12.30;;;9.77;;
21804;SDS011;11064;47.102;15.452;2023-05-07T17:45:19;12.73;;;9.52;;
21804;SDS011;11064;47.102;15.452;2023-05-07T17:47:45;10.23;;;8.80;;
21804;SDS011;11064;47.102;15.452;2023-05-07T17:50:12;10.68;;;9.18;;
21804;SDS011;11064;47.102;15.452;2023-05-07T17:52:39;11.07;;;9.73;;
21804;SDS011;11064;47.102;15.452;2023-05-07T17:55:06;10.75;;;9.65;;
21804;SDS011;11064;47.102;15.452;2023-05-07T17:57:32;11.25;;;10.02;;
21804;SDS011;11064;47.102;15.452;2023-05-07T18:00:01;12.73;;;10.52;;
21804;SDS011;11064;47.102;15.452;2023-05-07T18:02:31;12.77;;;11.07;;
21804;SDS011;11064;47.102;15.452;2023-05-07T18:04:57;12.10;;;10.55;;
21804;SDS011;11064;47.102;15.452;2023-05-07T18:07:23;15.90;;;10.90;;
21804;SDS011;11064;47.102;15.452;2023-05-07T18:09:49;11.80;;;10.52;;
21804;SDS011;11064;47.102;15.452;2023-05-07T18:12:15;14.30;;;10.40;;
21804;SDS011;11064;47.102;15.452;2023-05-07T18:14:41;13.02;;;10.50;;
21804;SDS011;11064;47.102;15.452;2023-05-07T18:17:07;12.77;;;10.63;;
21804;SDS011;11064;47.102;15.452;2023-05-07T18:19:33;13.95;;;11.10;;
21804;SDS011;11064;47.102;15.452;2023-05-07T18:21:59;12.52;;;11.23;;
21804;SDS011;11064;47.102;15.452;2023-05-07T18:24:25;13.85;;;10.98;;
21804;SDS011;11064;47.102;15.452;2023-05-07T18:26:51;13.18;;;11.77;;
21804;SDS011;11064;47.102;15.452;2023-05-07T18:29:17;15.93;;;12.25;;
21804;SDS011;11064;47.102;15.452;2023-05-07T18:31:43;15.25;;;11.73;;
21804;SDS011;11064;47.102;15.452;2023-05-07T18:34:08;14.35;;;12.40;;
21804;SDS011;11064;47.102;15.452;2023-05-07T18:36:34;15.55;;;12.05;;
21804;SDS011;11064;47.102;15.452;2023-05-07T18:39:00;14.38;;;11.60;;
21804;SDS011;11064;47.102;15.452;2023-05-07T18:41:26;17.00;;;13.27;;
21804;SDS011;11064;47.102;15.452;2023-05-07T18:43:52;14.85;;;12.20;;
21804;SDS011;11064;47.102;15.452;2023-05-07T18:46:18;16.55;;;13.70;;
21804;SDS011;11064;47.102;15.452;2023-05-07T18:48:44;15.88;;;13.35;;
21804;SDS011;11064;47.102;15.452;2023-05-07T18:51:10;18.52;;;15.23;;
21804;SDS011;11064;47.102;15.452;2023-05-07T18:53:39;16.48;;;14.25;;
21804;SDS011;11064;47.102;15.452;2023-05-07T18:56:06;17.67;;;14.02;;
21804;SDS011;11064;47.102;15.452;2023-05-07T18:58:32;17.63;;;13.98;;
21804;SDS011;11064;47.102;15.452;2023-05-07T19:00:59;17.77;;;14.25;;
21804;SDS011;11064;47.102;15.452;2023-05-07T19:03:25;21.27;;;16.33;;
21804;SDS011;11064;47.102;15.452;2023-05-07T19:05:51;19.08;;;14.38;;
21804;SDS011;11064;47.102;15.452;2023-05-07T19:08:18;22.13;;;18.40;;
21804;SDS011;11064;47.102;15.452;2023-05-07T19:10:43;28.42;;;21.90;;
21804;SDS011;11064;47.102;15.452;2023-05-07T19:13:10;27.75;;;22.52;;
21804;SDS011;11064;47.102;15.452;2023-05-07T19:15:36;28.40;;;21.60;;
21804;SDS011;11064;47.102;15.452;2023-05-07T19:18:01;28.58;;;22.40;;
21804;SDS011;11064;47.102;15.452;2023-05-07T19:20:28;28.85;;;23.10;;
21804;SDS011;11064;47.102;15.452;2023-05-07T19:22:54;30.08;;;23.83;;
21804;SDS011;11064;47.102;15.452;2023-05-07T19:25:20;30.88;;;24.02;;
21804;SDS011;11064;47.102;15.452;2023-05-07T19:27:46;31.73;;;23.60;;
21804;SDS011;11064;47.102;15.452;2023-05-07T19:30:12;34.22;;;24.83;;
21804;SDS011;11064;47.102;15.452;2023-05-07T19:32:38;31.83;;;23.85;;
21804;SDS011;11064;47.102;15.452;2023-05-07T19:35:04;31.85;;;24.70;;
21804;SDS011;11064;47.102;15.452;2023-05-07T19:37:31;33.05;;;25.80;;
21804;SDS011;11064;47.102;15.452;2023-05-07T19:39:58;45.63;;;34.03;;
21804;SDS011;11064;47.102;15.452;2023-05-07T19:42:29;42.85;;;32.38;;
21804;SDS011;11064;47.102;15.452;2023-05-07T19:44:55;44.08;;;29.58;;